Latest Weather Observations for Ferny Creek

IDV60801

Issued at 11:31 pm EST Sunday 24 May 2015 (issued every 30 minutes, with the page automatically refreshed every 10 minutes)

About weather observations | Map of weather stations | Latest weather observations for VIC | Other Formats
Station Details ID: 086266 Name: FERNY CREEK Lat: -37.87 Lon: 145.35 Height: 512.9 m
Data from the previous 72 hours. | See also: Recent months at Ferny Creek
Date/Time
EST
Temp
°C
App
Temp
°C
Dew
Point
Rel
Hum
%
Delta-T
°C
Wind Press
QNH
hPa
Press
MSL
hPa
Rain
since 9 am
mm
Dir
 
Spd
km/h
Gust
km/h
Spd
kts
Gust
kts
24/11:30pm 7.9 5.4 1.3 63 2.7 NNW 4 9 2 5 1030.5 1030.8 0.0
24/11:00pm 7.9 5.4 1.5 64 2.7 NNW 4 9 2 5 1030.6 1030.9 0.0
24/10:30pm 7.3 4.5 1.8 68 2.3 NW 6 13 3 7 1030.6 1030.9 0.0
24/10:00pm 7.5 4.8 2.6 71 2.1 NW 6 11 3 6 1030.6 1030.9 0.0
24/09:30pm 7.5 5.1 2.4 70 2.2 NNW 4 7 2 4 1030.6 1030.9 0.0
24/09:00pm 7.9 5.4 3.6 74 1.9 NNW 6 13 3 7 1030.6 1030.9 0.0
24/08:30pm 8.2 5.7 3.7 73 2.0 NW 6 9 3 5 1030.5 1030.8 0.0
24/08:00pm 9.0 6.5 3.6 69 2.4 NW 6 11 3 6 1030.4 1030.7 0.0
24/07:30pm 8.7 6.2 3.7 71 2.2 NW 6 13 3 7 1030.3 1030.6 0.0
24/07:00pm 9.3 7.2 3.9 69 2.4 NNW 4 11 2 6 1030.2 1030.5 0.0
24/06:30pm 8.9 7.3 4.7 75 1.9 NNW 2 4 1 2 1030.0 1030.3 0.0
24/06:00pm 9.2 7.3 4.8 74 2.0 NNW 4 7 2 4 1029.9 1030.1 0.0
24/05:30pm 9.2 7.6 4.4 72 2.2 NNW 2 6 1 3 1029.9 1030.1 0.0
24/05:00pm 9.8 7.6 3.5 65 2.8 NNW 4 9 2 5 1029.9 1030.1 0.0
24/04:30pm 10.4 8.6 3.7 63 3.0 NW 2 6 1 3 1029.8 1030.0 0.0
24/04:00pm 10.8 9.4 3.6 61 3.2 CALM 0 2 0 1 1029.8 1030.0 0.0
24/03:30pm 11.5 9.6 3.0 56 3.8 NW 2 6 1 3 1029.7 1029.9 0.0
24/03:00pm 12.0 9.3 2.7 53 4.1 NW 6 9 3 5 1029.5 1029.7 0.0
24/02:30pm 13.1 11.5 4.3 55 4.1 W 2 4 1 2 1029.3 1029.5 0.0
24/02:00pm 11.5 8.5 2.3 53 4.0 NW 7 13 4 7 1029.3 1029.5 0.0
24/01:30pm 11.8 9.5 2.8 54 4.0 WNW 4 9 2 5 1029.5 1029.7 0.0
24/01:00pm 11.6 8.8 1.8 51 4.3 WNW 6 11 3 6 1029.8 1030.0 0.0
24/12:30pm 10.9 8.5 2.0 54 3.9 NNW 4 11 2 6 1030.1 1030.4 0.0
24/12:00pm 11.8 9.0 3.1 55 3.9 NW 7 17 4 9 1030.4 1030.7 0.0
24/11:30am 10.9 8.4 1.4 52 4.1 NNW 4 9 2 5 1030.7 1031.0 0.0
24/11:00am 10.7 7.6 1.5 53 3.9 NW 7 13 4 7 1031.0 1031.3 0.0
24/10:30am 10.8 7.2 0.8 50 4.3 NW 9 17 5 9 1031.1 1031.4 0.0
24/10:00am 10.4 6.4 0.2 49 4.2 NW 11 19 6 10 1031.0 1031.3 0.0
24/09:30am 10.7 7.0 0.2 48 4.4 NW 9 15 5 8 1030.8 1031.1 0.0
24/09:00am 10.4 6.4 -2.6 40 5.1 NW 9 13 5 7 1030.7 1031.0 0.2
24/08:30am 9.7 5.0 -4.6 36 5.3 NW 11 17 6 9 1030.5 1030.8 0.2
24/08:00am 9.4 4.7 -4.9 36 5.2 WNW 11 17 6 9 1030.1 1030.4 0.2
24/07:30am 9.2 4.0 -5.8 34 5.4 NW 13 17 7 9 1029.9 1030.1 0.2
24/07:00am 9.0 4.8 -7.6 30 5.6 NW 7 11 4 6 1029.8 1030.0 0.2
24/06:30am 7.7 4.2 -6.0 37 4.8 NW 4 6 2 3 1029.6 1029.8 0.2
24/06:00am 5.0 2.2 -3.3 55 3.0 NW 2 6 1 3 1029.3 1029.5 0.2
24/05:30am 6.9 3.5 -5.1 42 4.3 NW 4 6 2 3 1029.3 1029.5 0.2
24/05:00am 4.0 1.6 -3.0 60 2.5 CALM 0 4 0 2 1029.3 1029.5 0.2
24/04:30am 3.1 1.4 1.6 90 0.6 CALM 0 2 0 1 1029.1 1029.4 0.2
24/04:00am 3.1 0.6 1.3 88 0.7 W 4 7 2 4 1028.9 1029.2 0.2
24/03:30am 3.0 1.3 2.1 94 0.4 CALM 0 0 0 0 1028.9 1029.2 0.2
24/03:00am 3.3 1.4 2.9 97 0.2 NW 2 2 1 1 1029.3 1029.5 0.0
24/02:30am 2.8 1.2 2.2 96 0.2 CALM 0 0 0 0 1029.6 1029.8 0.0
24/02:00am 3.6 2.1 3.2 97 0.2 CALM 0 0 0 0 1029.7 1029.9 0.0
24/01:30am 3.7 1.9 3.3 97 0.2 NW 2 4 1 2 1029.8 1030.0 0.0
24/01:00am 3.8 2.0 3.4 97 0.2 NW 2 6 1 3 1030.1 1030.4 0.0
24/12:30am 3.0 1.4 2.4 96 0.2 CALM 0 0 0 0 1030.1 1030.4 0.0
24/12:00am 3.0 1.4 2.4 96 0.2 CALM 0 0 0 0 1030.4 1030.7 0.0
 
Date/Time
EST
Temp
°C
App
Temp
°C
Dew
Point
Rel
Hum
%
Delta-T
°C
Wind Press
QNH
hPa
Press
MSL
hPa
Rain
since 9 am
mm
Dir
 
Spd
km/h
Gust
km/h
Spd
kts
Gust
kts
23/11:30pm 4.2 2.8 3.6 96 0.3 CALM 0 0 0 0 1030.5 1030.8 0.0
23/11:00pm 4.0 2.6 3.4 96 0.3 CALM 0 0 0 0 1030.5 1030.8 0.0
23/10:30pm 3.9 2.5 3.3 96 0.3 CALM 0 0 0 0 1030.7 1031.0 0.0
23/10:00pm 3.9 2.5 3.3 96 0.3 CALM 0 0 0 0 1030.9 1031.2 0.0
23/09:30pm 3.9 2.4 3.2 95 0.3 CALM 0 0 0 0 1031.1 1031.4 0.0
23/09:00pm 4.2 2.8 3.5 95 0.3 CALM 0 0 0 0 1031.1 1031.4 0.0
23/08:30pm 4.3 2.9 3.6 95 0.3 CALM 0 2 0 1 1031.0 1031.3 0.0
23/08:00pm 4.2 2.4 3.5 95 0.3 SSE 2 6 1 3 1030.9 1031.2 0.0
23/07:30pm 4.2 2.4 3.3 94 0.4 SSW 2 4 1 2 1030.9 1031.2 0.0
23/07:00pm 4.7 2.9 3.7 93 0.4 SSE 2 4 1 2 1030.8 1031.1 0.0
23/06:30pm 5.2 3.5 4.2 93 0.4 SSE 2 4 1 2 1030.7 1031.0 0.0
23/06:00pm 5.5 3.5 4.2 91 0.6 SE 4 6 2 3 1030.6 1030.9 0.0
23/05:30pm 5.7 4.0 4.0 89 0.7 SSE 2 4 1 2 1030.6 1030.9 0.0
23/05:00pm 6.3 4.7 4.5 88 0.8 SSE 2 4 1 2 1030.6 1030.9 0.0
23/04:30pm 7.2 5.3 4.7 84 1.1 ESE 4 6 2 3 1030.7 1031.0 0.0
23/04:00pm 8.4 6.9 4.8 78 1.6 ESE 2 7 1 4 1030.9 1031.2 0.0
23/03:30pm 8.8 6.9 4.8 76 1.8 ESE 4 7 2 4 1030.8 1031.1 0.0
23/03:00pm 9.0 7.1 4.8 75 1.9 ESE 4 7 2 4 1030.7 1031.0 0.0
23/02:30pm 9.1 6.7 4.5 73 2.1 SE 6 11 3 6 1030.5 1030.8 0.0
23/02:00pm 8.6 6.7 5.0 78 1.6 SE 4 9 2 5 1030.7 1031.0 0.0
23/01:30pm 8.4 6.5 4.8 78 1.6 ESE 4 7 2 4 1030.9 1031.2 0.0
23/01:00pm 8.5 6.1 4.5 76 1.8 ESE 6 9 3 5 1031.1 1031.4 0.0
23/12:30pm 8.5 6.1 4.3 75 1.9 ESE 6 13 3 7 1031.4 1031.6 0.0
23/12:00pm 9.0 7.0 4.4 73 2.1 S 4 9 2 5 1031.8 1032.1 0.0
23/11:30am 8.5 6.6 4.7 77 1.7 S 4 7 2 4 1032.2 1032.5 0.0
23/11:00am 8.3 6.7 4.3 76 1.8 S 2 6 1 3 1032.4 1032.7 0.0
23/10:30am 8.1 5.7 4.1 76 1.8 E 6 7 3 4 1032.5 1032.8 0.0
23/10:00am 7.2 5.6 4.3 82 1.3 SSW 2 7 1 4 1032.5 1032.8 0.0
23/09:30am 6.8 5.1 3.9 82 1.3 SE 2 7 1 4 1032.6 1032.9 0.0
23/09:00am 6.6 4.5 4.1 84 1.1 E 4 7 2 4 1032.4 1032.7 0.0
23/08:30am 6.2 4.4 3.7 84 1.1 SE 2 6 1 3 1032.3 1032.6 0.0
23/08:00am 6.0 4.6 3.7 85 1.0 CALM 0 4 0 2 1032.0 1032.3 0.0
23/07:30am 5.9 4.1 3.7 86 1.0 SSW 2 2 1 1 1031.7 1032.0 0.0
23/07:00am 5.8 4.4 3.5 85 1.0 CALM 0 4 0 2 1031.7 1032.0 0.0
23/06:30am 5.7 3.5 3.4 85 1.0 ESE 4 6 2 3 1031.4 1031.6 0.0
23/06:00am 5.9 4.1 3.7 86 0.9 SE 2 4 1 2 1031.1 1031.4 0.0
23/05:30am 5.9 4.1 3.6 85 1.0 SSE 2 6 1 3 1030.8 1031.1 0.0
23/05:00am 6.1 3.9 3.6 84 1.1 ESE 4 6 2 3 1030.7 1031.0 0.0
23/04:30am 6.0 4.6 3.7 85 1.0 CALM 0 0 0 0 1030.7 1031.0 0.0
23/04:00am 6.2 4.5 3.9 85 1.0 SSE 2 6 1 3 1030.6 1030.9 0.0
23/03:30am 6.4 4.7 4.1 85 1.0 SSE 2 6 1 3 1030.5 1030.8 0.0
23/03:00am 6.6 5.0 4.3 85 1.0 ESE 2 4 1 2 1030.6 1030.9 0.0
23/02:30am 6.6 4.9 4.1 84 1.1 ESE 2 6 1 3 1030.8 1031.1 0.0
23/02:00am 6.4 4.7 4.1 85 1.0 ESE 2 6 1 3 1030.9 1031.2 0.0
23/01:30am 6.6 4.2 4.1 84 1.1 SE 6 13 3 7 1030.8 1031.1 0.0
23/01:00am 6.7 5.1 4.4 85 1.0 E 2 11 1 6 1030.9 1031.2 0.0
23/12:30am 6.7 4.7 4.4 85 1.0 S 4 13 2 7 1031.1 1031.4 0.0
23/12:00am 6.8 5.2 4.6 86 1.0 SSE 2 7 1 4 1031.4 1031.6 0.0
 
Date/Time
EST
Temp
°C
App
Temp
°C
Dew
Point
Rel
Hum
%
Delta-T
°C
Wind Press
QNH
hPa
Press
MSL
hPa
Rain
since 9 am
mm
Dir
 
Spd
km/h
Gust
km/h
Spd
kts
Gust
kts
22/11:30pm 6.8 4.8 4.5 85 1.0 ESE 4 9 2 5 1031.2 1031.5 0.0
22/11:00pm 6.8 4.4 4.3 84 1.1 SE 6 11 3 6 1031.0 1031.3 0.0
22/10:30pm 6.7 4.7 4.2 84 1.1 ESE 4 11 2 6 1031.1 1031.4 0.0
22/10:00pm 6.6 4.6 4.4 86 1.0 SE 4 9 2 5 1031.1 1031.4 0.0
22/09:30pm 6.7 4.7 4.4 85 1.0 ESE 4 9 2 5 1031.0 1031.3 0.0
22/09:00pm 6.7 4.3 4.4 85 1.0 SE 6 15 3 8 1030.9 1031.2 0.0
22/08:30pm 6.7 4.2 4.0 83 1.2 ESE 6 11 3 6 1030.8 1031.1 0.0
22/08:00pm 6.7 4.6 3.9 82 1.2 SE 4 11 2 6 1030.8 1031.1 0.0
22/07:30pm 6.8 4.4 4.1 83 1.2 ESE 6 9 3 5 1030.5 1030.8 0.0
22/07:00pm 6.9 4.2 3.5 79 1.5 ESE 7 19 4 10 1030.3 1030.6 0.0
22/06:30pm 6.9 4.2 3.7 80 1.4 SE 7 19 4 10 1030.0 1030.3 0.0
22/06:00pm 7.0 5.0 4.3 83 1.2 SE 4 7 2 4 1029.9 1030.1 0.0
22/05:30pm 7.2 5.4 5.2 87 0.9 ESE 4 11 2 6 1029.7 1029.9 0.0
22/05:00pm 7.5 5.7 5.5 87 0.9 ESE 4 9 2 5 1029.7 1029.9 0.0
22/04:30pm 7.8 6.2 4.7 81 1.4 SSE 2 7 1 4 1029.6 1029.8 0.0
22/04:00pm 8.2 6.4 5.3 82 1.3 SE 4 9 2 5 1029.5 1029.7 0.0
22/03:30pm 8.4 6.3 5.7 83 1.3 SE 6 15 3 8 1029.4 1029.6 0.0
22/03:00pm 8.5 6.5 6.3 86 1.0 ESE 6 11 3 6 1029.0 1029.3 0.0
22/02:30pm 8.7 6.8 6.5 86 1.0 SSE 6 13 3 7 1028.6 1028.9 0.0
22/02:00pm 8.8 6.9 6.8 87 1.0 SE 6 19 3 10 1028.5 1028.8 0.0
22/01:30pm 9.1 7.5 6.4 83 1.3 SE 4 9 2 5 1028.5 1028.8 0.0
22/01:00pm 9.1 6.8 5.8 80 1.5 SE 7 15 4 8 1028.6 1028.9 0.0
22/12:30pm 9.0 7.3 5.7 80 1.5 SE 4 9 2 5 1028.6 1028.9 0.0
22/12:00pm 9.6 7.5 5.8 77 1.8 SE 6 11 3 6 1028.8 1029.1 0.0
22/11:30am 9.8 7.8 6.3 79 1.7 SE 6 11 3 6 1029.0 1029.3 0.0
22/11:00am 9.7 7.4 4.7 71 2.3 ESE 6 13 3 7 1029.3 1029.5 0.0
22/10:30am 10.0 7.6 5.2 72 2.2 ESE 7 17 4 9 1029.1 1029.4 0.0
22/10:00am 9.1 6.1 3.9 70 2.3 ESE 9 20 5 11 1028.8 1029.1 0.0
22/09:30am 8.8 5.8 4.2 73 2.1 ESE 9 17 5 9 1028.7 1029.0 0.0
22/09:00am 8.8 5.8 4.0 72 2.1 ESE 9 17 5 9 1028.7 1029.0 0.6
22/08:30am 8.4 5.9 3.5 71 2.2 ESE 6 13 3 7 1028.6 1028.9 0.6
22/08:00am 7.9 5.3 4.1 77 1.7 ESE 7 13 4 7 1028.2 1028.4 0.6
22/07:30am 7.1 4.1 3.9 80 1.4 ESE 9 15 5 8 1028.0 1028.2 0.6
22/07:00am 7.2 4.8 5.2 87 0.9 ESE 7 15 4 8 1027.7 1027.9 0.6
22/06:30am 7.3 4.9 5.4 88 0.9 ESE 7 17 4 9 1027.3 1027.5 0.6
22/06:00am 7.1 4.8 5.6 90 0.7 ESE 7 17 4 9 1026.9 1027.2 0.6
22/05:30am 7.0 4.7 5.5 90 0.7 ESE 7 13 4 7 1026.6 1026.9 0.6
22/05:00am 6.9 4.2 5.4 90 0.7 ESE 9 17 5 9 1026.3 1026.5 0.6
22/04:30am 6.9 4.3 6.2 95 0.3 ESE 9 19 5 10 1026.2 1026.4 0.6
22/04:00am 7.4 4.6 7.0 97 0.2 ESE 11 20 6 11 1026.0 1026.2 0.6
22/03:30am 7.7 5.0 7.3 97 0.2 ESE 11 19 6 10 1026.1 1026.3 0.6
22/03:00am 7.8 5.1 7.4 97 0.2 ESE 11 24 6 13 1026.0 1026.2 0.6
22/02:30am 8.0 5.7 7.6 97 0.2 ESE 9 19 5 10 1025.9 1026.1 0.6
22/02:00am 8.1 5.9 7.7 97 0.2 ESE 9 17 5 9 1025.6 1025.8 0.6
22/01:30am 8.1 5.5 7.7 97 0.2 ESE 11 24 6 13 1025.6 1025.8 0.6
22/01:00am 8.0 5.7 7.4 96 0.3 ESE 9 24 5 13 1025.4 1025.6 0.6
22/12:30am 8.3 6.1 7.7 96 0.3 ESE 9 17 5 9 1025.5 1025.7 0.6
22/12:00am 8.2 5.5 7.4 95 0.4 ESE 11 19 6 10 1025.3 1025.5 0.6

Other Formats:

Comma delimited format used in spreadsheet applications
http://www.bom.gov.au/fwo/IDV60801/IDV60801.94872.axf

JavaScript Object Notation format (JSON) in row-major order
http://www.bom.gov.au/fwo/IDV60801/IDV60801.94872.json